Terminal Aerodrome Forecast
Issued by NWS Sioux Falls, SD

Home | Current Version | Previous Version | Graphics & Text | Print | Product List | Glossary Off
Versions: 1 2 3 4 5 6 7 8 9 10 11 12 13 14 15 16 17 18 19 20 21 22 23 24 25 26 27 28

000
FTUS43 KFSD 022330
TAFSUX
TAF
KSUX 022330Z 0300/0324 14013KT P6SM OVC060
     FM030500 14013KT P6SM OVC030
     FM030800 14011KT 3SM -FZDZSN OVC012
     FM031100 13006KT 2SM -FZDZSN OVC009
     FM031500 28012KT 3SM -SN BR OVC015
     FM031800 34025G35KT P6SM BKN030=

USA.gov is the U.S. government's official web portal to all federal, state and local government web resources and services.